createdAt,value
2022-08-02T00:00:41.328Z,2.10
2022-08-02T00:03:09.381Z,1.90
2022-08-02T00:05:37.363Z,1.90
2022-08-02T00:08:06.962Z,2.00
2022-08-02T00:10:35.209Z,1.85
2022-08-02T00:13:03.218Z,2.50
2022-08-02T00:15:31.121Z,2.20
2022-08-02T00:17:59.187Z,1.95
2022-08-02T00:20:27.130Z,1.88
2022-08-02T00:22:55.122Z,1.80
2022-08-02T00:25:24.458Z,2.00
2022-08-02T00:27:52.585Z,2.05
2022-08-02T00:30:20.752Z,2.13
2022-08-02T00:32:48.725Z,2.05
2022-08-02T00:35:16.647Z,1.85
2022-08-02T00:37:44.896Z,2.05
2022-08-02T00:40:13.713Z,1.75
2022-08-02T00:42:44.249Z,1.95
2022-08-02T00:45:12.859Z,1.95
2022-08-02T00:47:42.093Z,2.10
2022-08-02T00:50:11.007Z,2.08
2022-08-02T00:52:38.993Z,1.92
2022-08-02T00:55:07.769Z,2.00
2022-08-02T00:57:37.020Z,2.03
2022-08-02T01:00:08.260Z,2.00
2022-08-02T01:02:36.289Z,2.20
2022-08-02T01:05:04.609Z,1.80
2022-08-02T01:07:32.555Z,2.35
2022-08-02T01:10:01.006Z,1.73
2022-08-02T01:12:29.298Z,1.83
2022-08-02T01:15:01.267Z,1.90
2022-08-02T01:17:37.077Z,2.10
2022-08-02T01:20:13.235Z,2.00
2022-08-02T01:23:01.953Z,1.80
2022-08-02T01:25:46.136Z,1.83
2022-08-02T01:28:34.174Z,2.03
2022-08-02T01:31:07.707Z,1.60
2022-08-02T01:33:41.153Z,1.80
2022-08-02T01:36:12.911Z,2.83
2022-08-02T01:38:46.128Z,1.95
2022-08-02T01:41:19.304Z,1.88
2022-08-02T01:43:51.074Z,2.10
2022-08-02T01:46:21.404Z,2.00
2022-08-02T01:48:51.496Z,2.28
2022-08-02T01:51:42.991Z,2.35
2022-08-02T01:54:14.427Z,2.10
2022-08-02T01:56:44.087Z,1.98
2022-08-02T01:59:17.884Z,2.22
2022-08-02T02:01:49.190Z,1.95
2022-08-02T02:04:18.354Z,2.05
2022-08-02T02:06:47.549Z,1.70
2022-08-02T02:09:16.748Z,2.30
2022-08-02T02:12:10.073Z,2.00
2022-08-02T02:14:37.229Z,1.88
2022-08-02T02:17:06.674Z,1.80
2022-08-02T02:19:37.244Z,2.10
2022-08-02T02:22:05.400Z,1.75
2022-08-02T02:24:35.295Z,1.80
2022-08-02T02:27:06.564Z,1.83
2022-08-02T02:29:36.972Z,1.92
2022-08-02T02:32:07.330Z,2.20
2022-08-02T02:34:39.084Z,1.90
2022-08-02T02:37:14.564Z,1.90
2022-08-02T02:39:45.046Z,2.00
2022-08-02T02:42:15.860Z,1.90
2022-08-02T02:44:47.375Z,1.88
2022-08-02T02:47:16.955Z,1.90
2022-08-02T02:49:47.594Z,1.90
2022-08-02T02:52:18.090Z,1.80
2022-08-02T02:54:49.846Z,1.80
2022-08-02T02:57:18.284Z,1.90
2022-08-02T02:59:49.260Z,2.00
2022-08-02T03:02:19.523Z,1.60
2022-08-02T03:04:55.652Z,2.03
2022-08-02T03:07:26.136Z,2.10
2022-08-02T03:09:55.067Z,1.83
2022-08-02T03:12:30.581Z,2.00
2022-08-02T03:15:03.622Z,2.10
2022-08-02T03:17:42.533Z,2.15
2022-08-02T03:20:13.554Z,2.03
2022-08-02T03:22:42.081Z,1.77
2022-08-02T03:25:11.091Z,1.90
2022-08-02T03:27:39.399Z,1.90
2022-08-02T03:30:11.596Z,1.90
2022-08-02T03:32:41.721Z,1.90
2022-08-02T03:35:12.622Z,2.20
2022-08-02T03:37:41.957Z,2.22
2022-08-02T03:40:12.495Z,1.77
2022-08-02T03:42:41.594Z,1.70
2022-08-02T03:45:15.789Z,1.63
2022-08-02T03:47:44.826Z,1.80
2022-08-02T03:50:13.893Z,2.00
2022-08-02T03:52:43.605Z,2.00
2022-08-02T03:55:13.771Z,2.33
2022-08-02T03:57:45.248Z,1.98
2022-08-02T04:00:22.567Z,1.65
2022-08-02T04:02:51.243Z,1.90
2022-08-02T04:05:19.359Z,2.38
2022-08-02T04:08:02.753Z,2.03
2022-08-02T04:10:57.744Z,1.77
2022-08-02T04:13:35.966Z,1.70
2022-08-02T04:16:13.493Z,1.70
2022-08-02T04:18:46.343Z,3.55
2022-08-02T04:21:18.277Z,1.83
2022-08-02T04:23:48.563Z,1.77
2022-08-02T04:26:17.830Z,2.00
2022-08-02T04:28:46.716Z,2.17
2022-08-02T04:31:17.701Z,1.83
2022-08-02T04:33:46.276Z,2.13
2022-08-02T04:36:15.292Z,2.40
2022-08-02T04:38:59.168Z,2.05
2022-08-02T04:41:40.987Z,2.20
2022-08-02T04:44:13.197Z,2.17
2022-08-02T04:46:44.128Z,2.00
2022-08-02T04:49:12.756Z,2.53
2022-08-02T04:51:43.552Z,2.30
2022-08-02T04:54:12.703Z,2.70
2022-08-02T04:56:41.074Z,2.30
2022-08-02T04:59:09.630Z,2.50
2022-08-02T05:01:37.643Z,2.40
2022-08-02T05:04:07.252Z,2.35
2022-08-02T05:06:35.359Z,2.85
2022-08-02T05:09:03.284Z,2.47
2022-08-02T05:11:36.564Z,2.53
2022-08-02T05:14:05.372Z,2.63
2022-08-02T05:16:33.550Z,2.75
2022-08-02T05:19:02.291Z,2.97
2022-08-02T05:21:32.735Z,2.90
2022-08-02T05:24:00.694Z,3.08
2022-08-02T05:26:28.701Z,3.38
2022-08-02T05:28:56.735Z,3.15
2022-08-02T05:31:24.912Z,3.50
2022-08-02T05:33:53.050Z,3.75
2022-08-02T05:36:21.601Z,3.40
2022-08-02T05:38:52.877Z,3.63
2022-08-02T05:41:27.693Z,4.00
2022-08-02T05:43:55.720Z,4.03
2022-08-02T05:46:24.318Z,4.53
2022-08-02T05:48:52.293Z,4.90
2022-08-02T05:51:24.545Z,4.50
2022-08-02T05:53:59.373Z,5.18
2022-08-02T05:56:35.849Z,5.65
2022-08-02T05:59:06.183Z,5.60
2022-08-02T06:01:36.858Z,5.10
2022-08-02T06:04:08.435Z,5.93
2022-08-02T06:06:37.307Z,6.05
2022-08-02T06:09:13.949Z,5.78
2022-08-02T06:12:01.911Z,6.03
2022-08-02T06:14:40.923Z,6.65
2022-08-02T06:17:09.678Z,7.00
2022-08-02T06:19:51.510Z,7.45
2022-08-02T06:22:33.962Z,7.30
2022-08-02T06:25:48.302Z,7.65
2022-08-02T06:28:10.005Z,9.10
2022-08-02T06:30:40.827Z,8.80
2022-08-02T06:33:09.013Z,8.90
2022-08-02T06:35:45.325Z,9.40
2022-08-02T06:38:19.982Z,9.95
2022-08-02T06:40:54.631Z,11.55
2022-08-02T06:43:28.324Z,10.90
2022-08-02T06:45:56.348Z,11.88
2022-08-02T06:48:44.389Z,12.13
2022-08-02T06:51:12.662Z,13.57
2022-08-02T06:53:41.396Z,13.40
2022-08-02T06:56:11.441Z,14.88
2022-08-02T06:58:41.047Z,16.48
2022-08-02T07:01:09.893Z,21.20
2022-08-02T07:03:39.179Z,26.85
2022-08-02T07:06:09.817Z,30.50
2022-08-02T07:08:39.035Z,34.03
2022-08-02T07:11:07.811Z,37.60
2022-08-02T07:13:40.011Z,39.42
2022-08-02T07:16:11.604Z,41.20
2022-08-02T07:18:39.729Z,42.25
2022-08-02T07:21:08.707Z,42.42
2022-08-02T07:23:37.322Z,45.60
2022-08-02T07:26:06.036Z,43.78
2022-08-02T07:28:34.046Z,42.20
2022-08-02T07:31:03.485Z,36.65
2022-08-02T07:33:38.823Z,33.60
2022-08-02T07:36:09.875Z,32.42
2022-08-02T07:38:50.527Z,28.63
2022-08-02T07:41:18.706Z,27.35
2022-08-02T07:43:47.180Z,30.10
2022-08-02T07:46:16.587Z,29.65
2022-08-02T07:48:44.558Z,26.42
2022-08-02T07:51:17.138Z,18.58
2022-08-02T07:53:50.787Z,15.15
2022-08-02T07:56:19.890Z,15.07
2022-08-02T07:58:47.849Z,14.95
2022-08-02T08:01:17.403Z,13.15
2022-08-02T08:03:45.792Z,13.93
2022-08-02T08:06:13.758Z,13.35
2022-08-02T08:08:41.676Z,13.82
2022-08-02T08:11:09.695Z,13.15
2022-08-02T08:13:37.730Z,12.05
2022-08-02T08:16:06.421Z,12.15
2022-08-02T08:18:36.429Z,9.68
2022-08-02T08:21:04.701Z,9.90
2022-08-02T08:23:32.735Z,10.20
2022-08-02T08:26:00.760Z,10.65
2022-08-02T08:28:31.923Z,11.35
2022-08-02T08:31:00.112Z,10.02
2022-08-02T08:33:28.200Z,9.70
2022-08-02T08:35:58.176Z,8.65
2022-08-02T08:38:26.209Z,7.82
2022-08-02T08:40:56.770Z,7.95
2022-08-02T08:43:30.172Z,7.18
2022-08-02T08:45:58.910Z,7.47
2022-08-02T08:48:31.213Z,6.88
2022-08-02T08:51:06.140Z,7.00
2022-08-02T08:53:40.362Z,6.80
2022-08-02T08:56:14.092Z,6.53
2022-08-02T08:58:44.848Z,6.90
2022-08-02T09:01:16.797Z,6.55
2022-08-02T09:03:47.082Z,6.35
2022-08-02T09:06:16.946Z,6.43
2022-08-02T09:08:45.062Z,6.07
2022-08-02T09:11:17.705Z,5.13
2022-08-02T09:13:53.589Z,5.10
2022-08-02T09:16:30.361Z,5.40
2022-08-02T09:18:59.453Z,5.47
2022-08-02T09:21:38.321Z,5.13
2022-08-02T09:24:17.594Z,5.88
2022-08-02T09:26:46.067Z,5.80
2022-08-02T09:29:14.822Z,6.07
2022-08-02T09:31:49.359Z,5.90
2022-08-02T09:34:19.886Z,5.63
2022-08-02T09:36:54.375Z,6.55
2022-08-02T09:39:23.957Z,5.68
2022-08-02T09:41:52.126Z,6.72
2022-08-02T09:44:20.590Z,6.90
2022-08-02T09:46:48.597Z,6.38
2022-08-02T09:49:20.560Z,6.30
2022-08-02T09:51:54.262Z,5.93
2022-08-02T09:54:24.535Z,5.78
2022-08-02T09:56:54.862Z,6.68
2022-08-02T09:59:24.816Z,6.72
2022-08-02T10:02:01.829Z,6.45
2022-08-02T10:04:34.325Z,5.93
2022-08-02T10:07:24.001Z,6.30
2022-08-02T10:09:55.466Z,7.18
2022-08-02T10:12:24.796Z,6.60
2022-08-02T10:14:53.337Z,6.63
2022-08-02T10:17:22.656Z,6.60
2022-08-02T10:20:01.873Z,6.93
2022-08-02T10:22:34.810Z,7.53
2022-08-02T10:25:04.969Z,6.68
2022-08-02T10:27:49.305Z,6.47
2022-08-02T10:30:24.643Z,7.05
2022-08-02T10:32:59.368Z,6.72
2022-08-02T10:35:28.259Z,6.90
2022-08-02T10:38:03.855Z,6.82
2022-08-02T10:40:46.042Z,6.80
2022-08-02T10:43:15.222Z,5.90
2022-08-02T10:45:46.735Z,6.10
2022-08-02T10:48:17.070Z,6.18
2022-08-02T10:50:55.254Z,7.10
2022-08-02T10:53:29.749Z,6.53
2022-08-02T10:55:59.588Z,5.85
2022-08-02T10:58:30.454Z,5.60
2022-08-02T11:00:59.934Z,6.28
2022-08-02T11:03:42.471Z,7.50
2022-08-02T11:06:24.646Z,6.40
2022-08-02T11:09:32.876Z,6.93
2022-08-02T11:12:03.906Z,7.05
2022-08-02T11:14:33.612Z,6.95
2022-08-02T11:17:15.724Z,7.78
2022-08-02T11:20:18.753Z,7.05
2022-08-02T11:22:48.522Z,7.93
2022-08-02T11:26:02.584Z,6.85
2022-08-02T11:28:26.104Z,6.22
2022-08-02T11:31:02.623Z,6.95
2022-08-02T11:33:33.309Z,5.82
2022-08-02T11:36:06.924Z,6.10
2022-08-02T11:38:35.078Z,5.85
2022-08-02T11:41:09.626Z,7.80
2022-08-02T11:43:39.420Z,5.90
2022-08-02T11:46:14.424Z,6.30
2022-08-02T11:48:43.919Z,5.70
2022-08-02T11:51:14.694Z,3.97
2022-08-02T11:53:44.573Z,4.80
2022-08-02T11:56:21.652Z,5.13
2022-08-02T11:59:04.117Z,5.30
2022-08-02T12:01:36.886Z,4.30
2022-08-02T12:04:18.108Z,4.03
2022-08-02T12:06:54.867Z,4.18
2022-08-02T12:09:24.357Z,3.92
2022-08-02T12:11:53.833Z,2.95
2022-08-02T12:14:22.219Z,4.00
2022-08-02T12:17:08.055Z,3.60
2022-08-02T12:19:37.101Z,3.45
2022-08-02T12:22:10.883Z,2.90
2022-08-02T12:24:39.962Z,3.20
2022-08-02T12:27:10.461Z,4.35
2022-08-02T12:29:58.290Z,3.90
2022-08-02T12:32:27.763Z,3.70
2022-08-02T12:35:07.765Z,3.58
2022-08-02T12:37:37.096Z,3.30
2022-08-02T12:40:25.499Z,2.97
2022-08-02T12:42:58.563Z,3.40
2022-08-02T12:45:41.256Z,3.30
2022-08-02T12:48:10.953Z,3.15
2022-08-02T12:50:39.581Z,3.20
2022-08-02T12:53:09.884Z,3.30
2022-08-02T12:56:00.912Z,2.10
2022-08-02T12:58:47.311Z,2.30
2022-08-02T13:01:22.656Z,2.35
2022-08-02T13:04:11.803Z,2.70
2022-08-02T13:06:44.089Z,2.40
2022-08-02T13:09:14.983Z,3.05
2022-08-02T13:11:43.987Z,2.58
2022-08-02T13:14:15.349Z,3.28
2022-08-02T13:16:44.953Z,2.67
2022-08-02T13:19:15.524Z,2.60
2022-08-02T13:22:01.925Z,2.97
2022-08-02T13:24:40.991Z,3.10
2022-08-02T13:27:21.907Z,2.97
2022-08-02T13:29:52.255Z,3.38
2022-08-02T13:32:21.103Z,3.00
2022-08-02T13:34:49.026Z,3.03
2022-08-02T13:37:17.516Z,3.20
2022-08-02T13:40:05.566Z,3.47
2022-08-02T13:42:35.468Z,3.58
2022-08-02T13:45:12.067Z,2.90
2022-08-02T13:48:03.922Z,3.10
2022-08-02T13:50:31.432Z,3.05
2022-08-02T13:52:59.385Z,3.00
2022-08-02T13:55:28.167Z,3.40
2022-08-02T13:57:56.333Z,3.60
2022-08-02T14:00:35.429Z,3.50
2022-08-02T14:03:05.483Z,3.30
2022-08-02T14:05:39.476Z,3.55
2022-08-02T14:08:16.903Z,3.20
2022-08-02T14:10:45.506Z,3.50
2022-08-02T14:13:13.528Z,2.90
2022-08-02T14:15:43.022Z,3.53
2022-08-02T14:18:11.191Z,4.28
2022-08-02T14:20:39.088Z,3.97
2022-08-02T14:23:07.189Z,3.40
2022-08-02T14:25:35.326Z,3.67
2022-08-02T14:28:03.570Z,3.50
2022-08-02T14:30:31.763Z,3.30
2022-08-02T14:33:01.287Z,3.13
2022-08-02T14:35:29.278Z,3.67
2022-08-02T14:37:57.302Z,3.97
2022-08-02T14:40:30.709Z,3.63
2022-08-02T14:43:00.614Z,3.00
2022-08-02T14:45:39.809Z,2.90
2022-08-02T14:48:12.535Z,3.05
2022-08-02T14:50:41.020Z,3.05
2022-08-02T14:53:12.189Z,2.63
2022-08-02T14:55:41.966Z,3.22
2022-08-02T14:58:10.456Z,3.25
2022-08-02T15:00:40.892Z,3.03
2022-08-02T15:03:11.141Z,3.00
2022-08-02T15:05:39.136Z,3.00
2022-08-02T15:08:07.454Z,3.17
2022-08-02T15:10:35.454Z,3.03
2022-08-02T15:13:03.489Z,2.83
2022-08-02T15:15:31.474Z,3.10
2022-08-02T15:18:00.249Z,2.80
2022-08-02T15:20:29.877Z,2.83
2022-08-02T15:23:00.555Z,2.75
2022-08-02T15:25:28.510Z,3.47
2022-08-02T15:27:56.433Z,2.45
2022-08-02T15:30:24.545Z,2.55
2022-08-02T15:32:53.850Z,2.50
2022-08-02T15:35:21.988Z,2.67
2022-08-02T15:37:51.416Z,2.33
2022-08-02T15:40:19.558Z,2.50
2022-08-02T15:42:47.581Z,2.25
2022-08-02T15:45:15.966Z,2.50
2022-08-02T15:47:50.305Z,2.50
2022-08-02T15:50:19.437Z,2.55
2022-08-02T15:52:47.307Z,2.50
2022-08-02T15:55:16.971Z,2.25
2022-08-02T15:57:44.992Z,2.50
2022-08-02T16:00:18.096Z,2.50
2022-08-02T16:02:47.848Z,2.83
2022-08-02T16:05:17.811Z,2.63
2022-08-02T16:07:49.356Z,2.60
2022-08-02T16:10:19.151Z,3.15
2022-08-02T16:12:47.137Z,2.72
2022-08-02T16:15:15.194Z,2.70
2022-08-02T16:17:48.665Z,3.42
2022-08-02T16:20:23.009Z,3.00
2022-08-02T16:22:50.901Z,3.00
2022-08-02T16:25:20.417Z,2.97
2022-08-02T16:28:00.200Z,3.22
2022-08-02T16:30:35.930Z,2.58
2022-08-02T16:33:04.117Z,2.88
2022-08-02T16:35:32.203Z,3.50
2022-08-02T16:38:02.238Z,3.10
2022-08-02T16:40:34.248Z,2.80
2022-08-02T16:43:02.901Z,3.88
2022-08-02T16:45:37.114Z,3.08
2022-08-02T16:48:06.949Z,2.45
2022-08-02T16:50:37.861Z,2.40
2022-08-02T16:53:07.959Z,2.80
2022-08-02T16:55:37.939Z,2.28
2022-08-02T16:58:09.746Z,2.50
2022-08-02T17:00:37.955Z,2.47
2022-08-02T17:03:13.329Z,2.63
2022-08-02T17:05:56.362Z,2.33
2022-08-02T17:08:31.776Z,2.72
2022-08-02T17:11:03.547Z,2.60
2022-08-02T17:13:32.293Z,2.50
2022-08-02T17:16:20.645Z,2.50
2022-08-02T17:18:50.441Z,2.47
2022-08-02T17:21:18.526Z,2.03
2022-08-02T17:24:02.778Z,2.33
2022-08-02T17:26:37.489Z,1.85
2022-08-02T17:29:16.425Z,1.80
2022-08-02T17:32:05.816Z,1.90
2022-08-02T17:34:34.767Z,1.92
2022-08-02T17:37:05.633Z,1.92
2022-08-02T17:39:44.225Z,1.90
2022-08-02T17:42:23.596Z,1.60
2022-08-02T17:44:52.075Z,2.00
2022-08-02T17:47:20.437Z,1.73
2022-08-02T17:49:50.001Z,1.67
2022-08-02T17:52:50.472Z,1.85
2022-08-02T17:55:14.550Z,1.98
2022-08-02T17:57:57.193Z,2.28
2022-08-02T18:03:20.774Z,1.95
2022-08-02T18:05:55.042Z,1.70
2022-08-02T18:08:24.222Z,2.10
2022-08-02T18:10:55.881Z,2.45
2022-08-02T18:13:26.113Z,2.55
2022-08-02T18:16:01.365Z,2.42
2022-08-02T18:18:30.437Z,2.13
2022-08-02T18:21:15.953Z,2.30
2022-08-02T18:23:48.600Z,1.90
2022-08-02T18:26:17.948Z,2.00
2022-08-02T18:28:53.018Z,2.00
2022-08-02T18:31:22.788Z,2.03
2022-08-02T18:34:01.509Z,2.38
2022-08-02T18:36:31.565Z,2.38
2022-08-02T18:39:00.368Z,2.38
2022-08-02T18:41:38.818Z,2.45
2022-08-02T18:44:10.783Z,2.22
2022-08-02T18:46:44.155Z,1.90
2022-08-02T18:49:15.084Z,2.17
2022-08-02T18:51:43.711Z,1.90
2022-08-02T18:54:11.780Z,1.52
2022-08-02T18:56:40.142Z,1.73
2022-08-02T18:59:10.653Z,1.05
2022-08-02T19:01:46.804Z,1.70
2022-08-02T19:04:27.516Z,1.55
2022-08-02T19:07:07.427Z,1.10
2022-08-02T19:09:40.038Z,1.15
2022-08-02T19:12:13.105Z,1.20
2022-08-02T19:14:42.579Z,1.63
2022-08-02T19:17:54.243Z,1.75
2022-08-02T19:19:58.761Z,2.10
2022-08-02T19:22:29.924Z,1.70
2022-08-02T19:25:01.248Z,1.55
2022-08-02T19:27:32.727Z,1.63
2022-08-02T19:30:04.106Z,1.65
2022-08-02T19:32:40.493Z,1.58
2022-08-02T19:35:19.251Z,1.48
2022-08-02T19:38:06.363Z,1.85
2022-08-02T19:40:34.517Z,2.10
2022-08-02T19:44:21.604Z,1.85
2022-08-02T19:45:57.633Z,1.70
2022-08-02T19:48:27.056Z,1.90
2022-08-02T19:50:59.538Z,2.00
2022-08-02T19:56:25.766Z,1.60
2022-08-02T19:58:55.685Z,2.10
2022-08-02T20:01:36.891Z,1.90
2022-08-02T20:04:06.992Z,1.80
2022-08-02T20:06:35.100Z,2.10
2022-08-02T20:09:04.964Z,2.00
2022-08-02T20:11:35.057Z,2.45
2022-08-02T20:14:07.070Z,2.63
2022-08-02T20:16:39.411Z,2.75
2022-08-02T20:19:09.642Z,3.17
2022-08-02T20:21:42.037Z,3.67
2022-08-02T20:24:13.576Z,4.07
2022-08-02T20:26:47.019Z,4.07
2022-08-02T20:29:43.156Z,4.82
2022-08-02T20:32:08.030Z,4.70
2022-08-02T20:34:36.584Z,5.00
2022-08-02T20:38:00.171Z,6.45
2022-08-02T20:39:55.277Z,5.28
2022-08-02T20:42:26.999Z,6.20
2022-08-02T20:44:57.584Z,7.00
2022-08-02T20:47:38.866Z,7.80
2022-08-02T20:50:31.453Z,8.27
2022-08-02T20:53:00.098Z,8.75
2022-08-02T20:55:31.641Z,9.88
2022-08-02T20:58:02.121Z,10.23
2022-08-02T21:00:49.426Z,9.93
2022-08-02T21:03:21.446Z,11.07
2022-08-02T21:05:55.846Z,10.70
2022-08-02T21:08:24.592Z,12.23
2022-08-02T21:10:53.400Z,13.02
2022-08-02T21:13:26.121Z,13.00
2022-08-02T21:15:56.552Z,14.35
2022-08-02T21:18:44.476Z,14.07
2022-08-02T21:21:14.777Z,15.80
2022-08-02T21:26:32.931Z,16.90
2022-08-02T21:29:03.919Z,18.15
2022-08-02T21:31:35.518Z,17.15
2022-08-02T21:34:19.221Z,17.65
2022-08-02T21:36:50.805Z,17.25
2022-08-02T21:39:19.219Z,18.23
2022-08-02T21:41:48.760Z,19.25
2022-08-02T21:44:17.970Z,20.00
2022-08-02T21:46:49.413Z,19.15
2022-08-02T21:49:20.210Z,18.98
2022-08-02T21:51:49.652Z,18.67
2022-08-02T21:54:20.227Z,18.85
2022-08-02T21:56:52.024Z,18.50
2022-08-02T21:59:26.182Z,19.17
2022-08-02T22:01:56.936Z,17.80
2022-08-02T22:04:47.604Z,17.33
2022-08-02T22:07:17.189Z,17.83
2022-08-02T22:09:45.820Z,17.67
2022-08-02T22:12:17.555Z,18.27
2022-08-02T22:14:54.751Z,18.42
2022-08-02T22:17:50.485Z,18.48
2022-08-02T22:20:19.842Z,18.73
2022-08-02T22:22:50.370Z,18.92
2022-08-02T22:25:26.599Z,19.08
2022-08-02T22:28:38.756Z,18.48
2022-08-02T22:30:52.880Z,19.70
2022-08-02T22:33:42.453Z,18.90
2022-08-02T22:36:17.277Z,18.38
2022-08-02T22:38:46.113Z,19.27
2022-08-02T22:41:14.900Z,18.52
2022-08-02T22:43:43.340Z,19.60
2022-08-02T22:46:15.459Z,19.95
2022-08-02T22:48:45.367Z,18.65
2022-08-02T22:51:14.113Z,18.48
2022-08-02T22:53:45.602Z,19.85
2022-08-02T22:56:15.416Z,18.50
2022-08-02T22:58:49.822Z,2.22
2022-08-02T22:59:05.946Z,1.98
2022-08-02T22:59:12.142Z,15.52
2022-08-02T23:01:32.039Z,18.95
2022-08-02T23:04:00.267Z,18.58
2022-08-02T23:06:28.201Z,19.85
2022-08-02T23:08:57.740Z,19.10
2022-08-02T23:11:25.841Z,20.60
2022-08-02T23:13:53.829Z,21.90
2022-08-02T23:16:39.593Z,19.48
2022-08-02T23:19:25.010Z,20.35
2022-08-02T23:22:01.667Z,19.58
2022-08-02T23:24:33.891Z,20.55
2022-08-02T23:27:02.105Z,19.02
2022-08-02T23:29:30.099Z,20.42
2022-08-02T23:31:58.977Z,19.35
2022-08-02T23:34:27.403Z,18.70
2022-08-02T23:36:55.305Z,18.60
2022-08-02T23:39:23.456Z,18.92
2022-08-02T23:41:54.790Z,19.20
2022-08-02T23:44:23.610Z,18.92
2022-08-02T23:46:52.172Z,18.42
2022-08-02T23:49:20.573Z,19.65
2022-08-02T23:51:49.024Z,20.65
2022-08-02T23:54:17.854Z,20.08
2022-08-02T23:56:46.128Z,20.65
2022-08-02T23:59:16.139Z,19.60
